This is the latest recevied weather packets stored in our database for station/object N9MXT-13. If no packets are shown the sender has not sent any weather packets the latest 10 day(s).
| Time | Temp. | Humidity | Pressure | Rain* | Wind** | Luminosity | Snow |
|---|---|---|---|---|---|---|---|
| 1777658999 | 8.89° C | 57% | 1016.7 hPa | 0 mm | - | - | - |
| 1777658099 | 8.89° C | 56% | 1016.8 hPa | 0 mm | - | - | - |
| 1777656299 | 8.33° C | 56% | 1016.7 hPa | 0 mm | - | - | - |
| 1777655699 | 8.89° C | 58% | 1016.8 hPa | 0 mm | - | - | - |
| 1777655099 | 8.33° C | 58% | 1016.7 hPa | 0 mm | - | - | - |
| 1777654499 | 8.33° C | 58% | 1016.7 hPa | 0 mm | - | - | - |
| 1777646999 | 7.22° C | 66% | 1016.6 hPa | 0 mm | - | - | - |
| 1777646099 | 7.22° C | 68% | 1016.5 hPa | 0 mm | - | - | - |
| 1777643099 | 5.56° C | 84% | 1016.5 hPa | 0 mm | - | - | - |
| 1777641899 | 5.56° C | 86% | 1016.3 hPa | 0 mm | - | - | - |
| 1777641301 | 5° C | 89% | 1016.3 hPa | 0 mm | - | - | - |
| 1777639199 | 3.89° C | 91% | 1016.4 hPa | 0 mm | - | - | - |
| 1777638601 | 3.89° C | 92% | 1016.5 hPa | 0 mm | - | - | - |
| 1777637399 | 3.89° C | 92% | 1016.3 hPa | 0 mm | - | - | - |
| 1777637099 | 3.89° C | 92% | 1016.2 hPa | 0 mm | - | - | - |
| 1777636499 | 3.89° C | 92% | 1016 hPa | 0 mm | - | - | - |
| 1777636199 | 3.89° C | 92% | 1015.9 hPa | 0 mm | - | - | - |
| 1777635600 | 3.89° C | 92% | 1015.8 hPa | 0 mm | - | - | - |
| 1777635299 | 3.89° C | 92% | 1015.9 hPa | 0 mm | - | - | - |
| 1777628698 | 3.33° C | 91% | 1015.4 hPa | 0 mm | - | - | - |
| 1777627499 | 3.33° C | 91% | 1015.1 hPa | 0 mm | - | - | - |
| 1777624199 | 3.33° C | 90% | 1014.9 hPa | 0.51 mm | - | - | - |
| 1777621501 | 3.89° C | 90% | 1015.1 hPa | 0.25 mm | - | - | - |
| 1777609201 | 3.89° C | 84% | 1015 hPa | 0 mm | - | - | - |
| 1777604700 | 5° C | 78% | 1015.4 hPa | 0 mm | - | - | - |
* Rain latest hour (hover to see other rain measurements)
** Current wind speed in m/s (hover to see current wind gust speed)